Atlantic - Newfoundland: Past 24 Hour Conditions

 

Blanc-Sablon Airport

12:00 PM AST 21 October 2014
This table is a summary of hourly weather conditions for the past 24 hours.
Date / Time
(AST)
Wind(knots) Conditions Visibility(km) Pressure(kPa) Air tempC) Relative humidity(%) Dew pointC)
21 October 2014
12:00 NW 10 gust 17 Mostly Cloudy 24 101.3 7 62 1
11:00 WNW 13 Partly Cloudy 24 101.2 6 62 -1
10:00 WNW 13 gust 19 Partly Cloudy 24 101.1 6 64 -1
9:00 WNW 12 gust 17 Mostly Cloudy 24 101.0 5 71 1
8:00 W 14 Mostly Cloudy 24 100.9 4 76 1
7:00 W 14 gust 19 Mostly Cloudy 24 100.7 4 78 1
6:00 W 16 gust 25 Partly Cloudy 24 100.4 4 80 0
5:00 W 15 gust 25 Mainly Clear 24 100.2 4 80 1
4:00 W 18 gust 23 Partly Cloudy 24 100.0 4 79 1
3:00 W 22 gust 29 Cloudy 24 99.8 4 78 1
2:00 W 21 gust 28 Cloudy 24 99.6 4 80 1
1:00 W 21 gust 31 Mostly Cloudy 19 99.3 5 81 2
0:00 W 23 gust 34 Mostly Cloudy 16 99.1 5 86 2
20 October 2014
23:00 W 29 gust 40 Light Rain 16 98.8 5 83 2
22:00 WSW 28 gust 38 Cloudy 13 98.7 6 85 4
21:00 WSW 29 gust 44 Light Rain 13 98.6 7 86 4
20:00 WSW 30 gust 47 Light Rain 6 98.4 7 92 5
19:00 WSW 35 gust 44 Light Rain 8 98.3 7 92 6
18:00 SW 34 gust 48 Light Rain 3 98.2 7 93 6
17:00 SW 32 gust 47 Light Rain 8 98.1 7 94 6
16:00 SW 40 gust 52 Light Rain 5 97.9 8 95 7
15:00 SW 43 gust 54 Light Rain 2 97.6 9 96 8
14:00 S 23 gust 31 Light Rain 3 97.7 9 97 9
13:00 E 23 gust 30 Light Rainshower 16 N/A 12 95 11
12:00 E 22 gust 31 Light Rain 3 N/A 10 96 9
 
Map of Atlantic - Newfoundland marine weather areas Southwestern Grand Banks - 44138 Banquereau - 44139 Tail of the Bank - 44140 Nickerson Bank - 44251 Northeast Burgeo Bank - 44255 Blanc-Sablon Airport Cap Whittle Chevery Natashquan Airport Heath Point Miscou Island Grand Étang Ingonish Beach North Mountain St.Paul Island J.A. Douglas McCurdy Sydney Airport Charlottetown Airport East Point North Cape Argentia Bonavista Burgeo Cape Race Corner Brook Daniel's Harbour Englee Ferolle Point La Scie Port aux Basques Rocky Harbour Sagona Island St. Anthony Airport St. John's Int'l Airport St. Lawrence Stephenville Airport Twillingate Winterland Wreckhouse Cartwright Airport Mary's Harbour Grates Cove Pool's Island Marticot Island Long Pond Îles de la Madeleine Airport
Legend: buoyBuoy land stationLand Station